Time;durP1;ratioP1;P1;durP2;ratioP2;P2;SDS_P1;SDS_P2;PMS_P1;PMS_P2;Temp;Humidity;BMP_temperature;BMP_pressure;BME280_temperature;BME280_humidity;BME280_pressure;Samples;Min_cycle;Max_cycle;Signal;HPM_P1;HPM_P2
2022/10/22 03:02:18;;;;;;;0.60;0.50;;;13.70;95.70;;;;;;5412914;22;20508;-75
2022/10/22 03:04:45;;;;;;;0.60;0.60;;;13.60;95.60;;;;;;5057028;28;20442;-75
2022/10/22 03:07:11;;;;;;;0.60;0.50;;;13.70;95.80;;;;;;5056767;28;20446;-74
2022/10/22 03:09:38;;;;;;;0.60;0.50;;;13.80;95.40;;;;;;5056722;28;20457;-74
2022/10/22 03:12:07;;;;;;;0.70;0.60;;;13.70;95.10;;;;;;5056279;28;20999;-74
2022/10/22 03:14:34;;;;;;;0.70;0.60;;;13.90;95.20;;;;;;5058056;28;20523;-73
2022/10/22 03:17:00;;;;;;;0.70;0.70;;;13.80;94.70;;;;;;5056569;28;20481;-75
2022/10/22 03:19:28;;;;;;;0.60;0.60;;;13.80;94.90;;;;;;5056476;28;20451;-74
2022/10/22 03:22:00;;;;;;;0.60;0.50;;;13.80;94.70;;;;;;5056433;28;20462;-75
2022/10/22 03:24:31;;;;;;;0.60;0.60;;;13.90;94.60;;;;;;5056143;28;20438;-75
2022/10/22 03:26:58;;;;;;;0.60;0.60;;;13.90;94.70;;;;;;5056419;28;20430;-75
2022/10/22 03:29:26;;;;;;;0.60;0.50;;;13.90;94.60;;;;;;5056294;28;20450;-75
2022/10/22 03:31:53;;;;;;;0.60;0.57;;;13.80;94.50;;;;;;5056171;28;20878;-75
2022/10/22 03:34:20;;;;;;;0.60;0.50;;;13.70;94.80;;;;;;5056242;28;20438;-74
2022/10/22 03:36:48;;;;;;;0.80;0.60;;;13.80;95.20;;;;;;5056093;28;20478;-75
2022/10/22 03:39:18;;;;;;;0.60;0.60;;;13.90;94.50;;;;;;5056097;28;20481;-73
2022/10/22 03:41:45;;;;;;;0.60;0.50;;;13.90;94.40;;;;;;5056017;28;20516;-74
2022/10/22 03:44:12;;;;;;;0.60;0.50;;;14.00;94.20;;;;;;5056005;28;20449;-75
2022/10/22 03:46:39;;;;;;;0.60;0.60;;;14.10;93.90;;;;;;5055687;28;20929;-75
2022/10/22 03:49:06;;;;;;;0.60;0.60;;;14.00;93.70;;;;;;5055936;28;20457;-75
2022/10/22 03:51:33;;;;;;;0.57;0.50;;;14.00;93.70;;;;;;5054975;28;20542;-75
2022/10/22 03:54:01;;;;;;;0.60;0.60;;;14.00;94.40;;;;;;5055901;28;20450;-74
2022/10/22 03:56:27;;;;;;;0.70;0.70;;;14.00;93.90;;;;;;5055730;28;20595;-75
2022/10/22 03:58:57;;;;;;;0.70;0.60;;;13.90;94.40;;;;;;5055770;28;20450;-75
2022/10/22 04:01:24;;;;;;;0.63;0.63;;;13.80;94.60;;;;;;5055493;28;20514;-75
2022/10/22 04:03:51;;;;;;;3.67;1.03;;;13.60;95.00;;;;;;5055556;28;20956;-74
2022/10/22 04:06:18;;;;;;;0.60;0.60;;;13.60;95.70;;;;;;5055783;28;20446;-74
2022/10/22 04:08:45;;;;;;;0.60;0.57;;;13.50;95.70;;;;;;5056607;28;20451;-74
2022/10/22 04:11:14;;;;;;;0.60;0.50;;;13.50;95.80;;;;;;5055430;28;20462;-75
2022/10/22 04:13:41;;;;;;;0.60;0.60;;;13.60;95.80;;;;;;5055453;28;20806;-73
2022/10/22 04:16:09;;;;;;;0.60;0.50;;;13.60;95.50;;;;;;5055325;28;20482;-75
2022/10/22 04:18:36;;;;;;;0.70;0.70;;;13.70;95.70;;;;;;5055064;28;20933;-74
2022/10/22 04:21:03;;;;;;;0.60;0.50;;;13.70;95.20;;;;;;5055260;28;20523;-74
2022/10/22 04:23:30;;;;;;;0.60;0.60;;;13.60;95.10;;;;;;5054921;28;20447;-74
2022/10/22 04:25:58;;;;;;;0.60;0.50;;;13.60;95.80;;;;;;5055261;28;20517;-74
2022/10/22 04:28:26;;;;;;;0.60;0.50;;;13.60;95.50;;;;;;5055205;28;20493;-74
2022/10/22 04:30:53;;;;;;;0.60;0.50;;;13.70;95.30;;;;;;5055098;28;20462;-74
2022/10/22 04:33:20;;;;;;;0.60;0.60;;;13.70;94.90;;;;;;5055082;28;20443;-74
2022/10/22 04:35:46;;;;;;;0.60;0.60;;;13.70;95.30;;;;;;5054972;28;20481;-74
2022/10/22 04:38:13;;;;;;;0.80;0.60;;;13.70;94.50;;;;;;5054992;28;20443;-73
2022/10/22 04:40:40;;;;;;;0.70;0.60;;;13.60;94.30;;;;;;5054855;28;20521;-76
2022/10/22 04:43:06;;;;;;;0.60;0.50;;;13.60;95.20;;;;;;5054887;28;20443;-75
2022/10/22 04:45:35;;;;;;;1.17;0.60;;;13.60;95.70;;;;;;5054511;28;20960;-75
2022/10/22 04:48:02;;;;;;;0.60;0.50;;;13.70;95.30;;;;;;5054813;28;20446;-75
2022/10/22 04:50:29;;;;;;;0.60;0.60;;;13.80;94.90;;;;;;5054685;28;20447;-75
2022/10/22 04:52:56;;;;;;;0.60;0.50;;;13.80;94.00;;;;;;5054729;28;20469;-75
2022/10/22 04:55:23;;;;;;;0.80;0.57;;;13.80;94.00;;;;;;5054886;28;20454;-74
2022/10/22 04:57:49;;;;;;;0.77;0.57;;;13.90;93.10;;;;;;5054816;28;20475;-74
2022/10/22 05:00:16;;;;;;;0.60;0.50;;;13.80;93.30;;;;;;5054626;28;20461;-74
2022/10/22 05:02:49;;;;;;;0.57;0.50;;;13.70;93.50;;;;;;5054106;28;20486;-75
2022/10/22 05:05:16;;;;;;;0.60;0.60;;;13.80;93.60;;;;;;5054595;28;20434;-74
2022/10/22 05:07:42;;;;;;;0.60;0.50;;;13.70;93.60;;;;;;5054518;28;20446;-74
2022/10/22 05:10:10;;;;;;;0.70;0.60;;;13.90;93.50;;;;;;5054403;28;20473;-74
2022/10/22 05:12:36;;;;;;;0.60;0.60;;;13.90;93.10;;;;;;5054331;28;20469;-75
2022/10/22 05:15:03;;;;;;;0.60;0.50;;;13.90;92.90;;;;;;5054300;28;20545;-75
2022/10/22 05:17:30;;;;;;;0.60;0.50;;;13.90;93.00;;;;;;5054145;28;20483;-75
2022/10/22 05:19:58;;;;;;;0.60;0.60;;;14.00;92.90;;;;;;5054278;28;20447;-74
2022/10/22 05:22:24;;;;;;;0.60;0.50;;;14.00;92.10;;;;;;5053856;28;20973;-74
2022/10/22 05:24:51;;;;;;;0.60;0.60;;;14.00;92.00;;;;;;5054118;28;20450;-75
2022/10/22 05:27:18;;;;;;;0.60;0.60;;;14.00;92.10;;;;;;5053784;28;20446;-75
2022/10/22 05:29:45;;;;;;;0.67;0.63;;;14.00;91.80;;;;;;5053997;28;20470;-74
2022/10/22 05:32:11;;;;;;;0.53;0.50;;;13.90;91.90;;;;;;5053852;28;20466;-75
2022/10/22 05:34:38;;;;;;;0.60;0.60;;;13.90;92.20;;;;;;5053693;28;20450;-75
2022/10/22 05:37:06;;;;;;;0.70;0.50;;;13.90;92.60;;;;;;5053850;28;20478;-74
2022/10/22 05:39:35;;;;;;;1.23;0.70;;;13.90;92.10;;;;;;5053932;28;20858;-75
2022/10/22 05:42:02;;;;;;;0.60;0.50;;;14.00;92.10;;;;;;5053812;28;20470;-75
2022/10/22 05:44:29;;;;;;;0.60;0.50;;;14.10;91.70;;;;;;5053830;28;20446;-74
2022/10/22 05:46:55;;;;;;;0.70;0.60;;;13.90;91.20;;;;;;5053721;28;20447;-74
2022/10/22 05:49:22;;;;;;;0.60;0.50;;;13.80;93.60;;;;;;5053667;28;20447;-74
2022/10/22 05:51:49;;;;;;;0.60;0.60;;;13.90;93.10;;;;;;5053577;28;20478;-75
2022/10/22 05:54:20;;;;;;;0.60;0.50;;;13.90;92.50;;;;;;5053607;28;20446;-74
2022/10/22 05:56:47;;;;;;;0.60;0.60;;;14.00;92.00;;;;;;5053244;28;20832;-75
2022/10/22 05:59:14;;;;;;;0.60;0.50;;;14.10;91.30;;;;;;5053568;28;20453;-74
2022/10/22 06:01:41;;;;;;;0.60;0.50;;;14.10;91.40;;;;;;5053107;28;20487;-75
2022/10/22 06:04:11;;;;;;;0.60;0.50;;;14.20;91.00;;;;;;5053451;28;20450;-75
2022/10/22 06:06:40;;;;;;;0.60;0.50;;;14.30;90.70;;;;;;5053088;28;20934;-75
2022/10/22 06:09:13;;;;;;;0.60;0.50;;;14.30;90.50;;;;;;5053120;28;20822;-74
2022/10/22 06:11:41;;;;;;;0.70;0.60;;;14.30;90.50;;;;;;5053051;28;20851;-74
2022/10/22 06:14:09;;;;;;;0.60;0.50;;;14.10;90.60;;;;;;5052840;28;20934;-74
2022/10/22 06:16:35;;;;;;;0.60;0.50;;;14.00;91.30;;;;;;5052917;28;20479;-75
2022/10/22 06:19:03;;;;;;;0.67;0.57;;;14.00;91.60;;;;;;5053091;28;20446;-75
2022/10/22 06:21:31;;;;;;;0.60;0.50;;;14.10;91.50;;;;;;5053035;28;20474;-74
2022/10/22 06:24:00;;;;;;;0.60;0.50;;;14.20;91.10;;;;;;5053221;28;20443;-74
2022/10/22 06:26:26;;;;;;;0.60;0.50;;;14.20;90.50;;;;;;5053178;28;20446;-75
2022/10/22 06:28:55;;;;;;;0.70;0.60;;;14.20;90.80;;;;;;5052866;28;20443;-75
2022/10/22 06:31:22;;;;;;;0.60;0.60;;;14.10;90.80;;;;;;5053079;28;20471;-74
2022/10/22 06:33:49;;;;;;;0.60;0.60;;;14.30;90.90;;;;;;5053143;28;20450;-74
2022/10/22 06:36:19;;;;;;;0.60;0.50;;;14.30;90.30;;;;;;5052732;28;20937;-75
2022/10/22 06:38:46;;;;;;;0.70;0.60;;;14.40;90.50;;;;;;5053151;28;20442;-75
2022/10/22 06:41:14;;;;;;;0.60;0.50;;;14.40;90.20;;;;;;5052979;28;20466;-75
2022/10/22 06:43:44;;;;;;;0.60;0.50;;;14.50;90.30;;;;;;5053025;28;20451;-75
2022/10/22 06:46:13;;;;;;;0.70;0.50;;;14.50;89.40;;;;;;5052952;28;20458;-75
2022/10/22 06:48:41;;;;;;;0.60;0.50;;;14.60;90.00;;;;;;5053026;28;20455;-75
2022/10/22 06:51:11;;;;;;;0.60;0.50;;;14.60;89.60;;;;;;5053077;28;20471;-76
2022/10/22 06:53:39;;;;;;;0.70;0.70;;;14.60;89.90;;;;;;5053507;28;20462;-76
2022/10/22 06:56:06;;;;;;;0.67;0.57;;;14.70;89.70;;;;;;5052989;28;20444;-76
2022/10/22 06:58:33;;;;;;;0.60;0.57;;;14.80;89.30;;;;;;5052933;28;20494;-76
2022/10/22 07:01:02;;;;;;;0.60;0.50;;;14.50;89.80;;;;;;5052608;28;20478;-76
2022/10/22 07:03:30;;;;;;;0.60;0.50;;;14.50;90.30;;;;;;5052962;28;20848;-76
2022/10/22 07:05:59;;;;;;;0.57;0.50;;;14.50;90.40;;;;;;5052648;28;20439;-76
2022/10/22 07:08:26;;;;;;;0.80;0.70;;;14.40;90.80;;;;;;5052842;28;20443;-75
2022/10/22 07:10:53;;;;;;;0.70;0.60;;;14.50;91.00;;;;;;5052725;28;20471;-76
2022/10/22 07:13:20;;;;;;;0.60;0.50;;;14.40;90.80;;;;;;5052472;28;20843;-75
2022/10/22 07:15:51;;;;;;;0.60;0.50;;;14.60;91.00;;;;;;5052753;28;20450;-76
2022/10/22 07:18:18;;;;;;;0.60;0.60;;;14.60;90.60;;;;;;5052719;28;20477;-75
2022/10/22 07:20:47;;;;;;;0.60;0.50;;;14.60;90.40;;;;;;5052331;28;20837;-71
2022/10/22 07:23:13;;;;;;;1.53;0.60;;;14.50;91.00;;;;;;5055206;28;20453;-74
2022/10/22 07:25:41;;;;;;;0.80;0.67;;;14.60;91.00;;;;;;5056299;28;20454;-75
2022/10/22 07:28:08;;;;;;;0.60;0.50;;;14.50;91.50;;;;;;5057231;28;20941;-73
2022/10/22 07:30:34;;;;;;;0.60;0.50;;;14.40;91.80;;;;;;5057140;28;20457;-74
2022/10/22 07:33:01;;;;;;;0.60;0.60;;;14.40;92.00;;;;;;5057513;28;20451;-74
2022/10/22 07:35:28;;;;;;;0.60;0.50;;;14.30;92.30;;;;;;5058063;28;20454;-74
2022/10/22 07:37:56;;;;;;;0.60;0.60;;;14.20;92.70;;;;;;5057769;28;20882;-74
2022/10/22 07:40:23;;;;;;;0.70;0.50;;;14.20;92.80;;;;;;5059224;28;20447;-74
2022/10/22 07:42:54;;;;;;;2.60;0.90;;;14.30;93.20;;;;;;5059793;28;20450;-74
2022/10/22 07:45:20;;;;;;;0.57;0.50;;;14.50;92.60;;;;;;5058918;28;20474;-75
2022/10/22 07:47:48;;;;;;;0.60;0.53;;;14.50;92.20;;;;;;5060026;28;20451;-75
2022/10/22 07:50:21;;;;;;;0.60;0.60;;;14.50;92.00;;;;;;5059168;28;20447;-72
2022/10/22 07:52:48;;;;;;;0.87;0.60;;;14.80;92.10;;;;;;5059184;28;20974;-74
2022/10/22 07:55:16;;;;;;;0.50;0.50;;;15.00;91.30;;;;;;5056715;28;20447;-73
2022/10/22 07:57:43;;;;;;;0.60;0.60;;;15.10;90.40;;;;;;5056716;28;20478;-73
2022/10/22 08:00:11;;;;;;;0.60;0.60;;;15.10;90.00;;;;;;5056480;28;20450;-73
2022/10/22 08:02:37;;;;;;;0.80;0.80;;;15.30;90.70;;;;;;5055737;28;20478;-73
2022/10/22 08:05:05;;;;;;;0.60;0.60;;;15.30;89.70;;;;;;5055975;28;20451;-73
2022/10/22 08:07:31;;;;;;;0.60;0.60;;;15.20;92.50;;;;;;5055747;28;20453;-73
2022/10/22 08:09:58;;;;;;;0.83;0.83;;;15.10;91.00;;;;;;5056137;28;20474;-73
2022/10/22 08:12:26;;;;;;;0.60;0.50;;;15.30;91.20;;;;;;5056116;28;20477;-73
2022/10/22 08:14:53;;;;;;;0.60;0.60;;;15.40;90.30;;;;;;5057941;28;20453;-73
2022/10/22 08:17:20;;;;;;;0.60;0.60;;;15.30;89.70;;;;;;5058033;28;20482;-73
2022/10/22 08:19:46;;;;;;;0.60;0.50;;;15.30;90.60;;;;;;5057535;28;20450;-70
2022/10/22 08:22:13;;;;;;;0.60;0.57;;;15.20;90.10;;;;;;5058014;28;20494;-73
2022/10/22 08:24:40;;;;;;;0.60;0.50;;;15.20;91.00;;;;;;5056946;28;20462;-73
2022/10/22 08:27:07;;;;;;;0.60;0.60;;;15.30;91.00;;;;;;5058877;28;20517;-73
2022/10/22 08:29:35;;;;;;;0.50;0.50;;;15.60;90.10;;;;;;5058112;28;20446;-74
2022/10/22 08:32:02;;;;;;;0.60;0.60;;;15.60;90.50;;;;;;5059060;28;20474;-74
2022/10/22 08:34:28;;;;;;;0.60;0.60;;;15.80;89.90;;;;;;5059494;28;20505;-74
2022/10/22 08:36:55;;;;;;;0.60;0.50;;;16.00;90.70;;;;;;5060104;28;20469;-74
2022/10/22 08:39:40;;;;;;;0.60;0.50;;;16.20;88.80;;;;;;5060546;28;20552;-75
2022/10/22 08:42:45;;;;;;;0.60;0.50;;;16.10;88.40;;;;;;5061519;28;20493;-76
2022/10/22 08:45:21;;;;;;;0.60;0.50;;;15.80;89.10;;;;;;5061043;28;20443;-76
2022/10/22 08:48:01;;;;;;;0.60;0.50;;;15.70;90.30;;;;;;5061574;28;20780;-76
2022/10/22 08:50:34;;;;;;;0.60;0.60;;;15.80;90.30;;;;;;5060514;28;20434;-76
2022/10/22 08:53:06;;;;;;;0.50;0.50;;;15.80;90.10;;;;;;5060627;28;20431;-76
2022/10/22 08:55:35;;;;;;;0.60;0.60;;;16.00;90.50;;;;;;5060554;28;20431;-75
2022/10/22 08:58:14;;;;;;;0.60;0.50;;;16.10;89.30;;;;;;5060335;28;20486;-76
2022/10/22 09:00:46;;;;;;;0.60;0.53;;;16.10;88.80;;;;;;5058935;28;20552;-76
2022/10/22 09:03:29;;;;;;;0.50;0.50;;;16.20;89.20;;;;;;5059638;28;20443;-75
2022/10/22 09:06:02;;;;;;;0.60;0.50;;;16.30;89.40;;;;;;5058674;28;20462;-75
2022/10/22 09:08:29;;;;;;;0.60;0.50;;;16.40;89.50;;;;;;5058215;28;20466;-76
2022/10/22 09:11:01;;;;;;;0.60;0.60;;;16.50;89.70;;;;;;5058089;28;21003;-76
2022/10/22 09:13:29;;;;;;;0.70;0.50;;;16.60;87.20;;;;;;5058845;28;20439;-76
2022/10/22 09:16:00;;;;;;;0.60;0.50;;;16.70;87.60;;;;;;5056053;28;20455;-79
2022/10/22 09:18:36;;;;;;;0.60;0.50;;;16.80;86.90;;;;;;5055599;28;20481;-78
2022/10/22 09:21:10;;;;;;;0.50;0.50;;;16.70;87.40;;;;;;5057464;28;20525;-80
2022/10/22 09:23:48;;;;;;;0.60;0.50;;;16.80;87.30;;;;;;5055682;28;20435;-80
2022/10/22 09:26:16;;;;;;;0.60;0.50;;;16.80;88.80;;;;;;5055324;28;20826;-81
2022/10/22 09:28:48;;;;;;;0.60;0.50;;;16.90;87.70;;;;;;5057946;28;20452;-82
2022/10/22 09:31:16;;;;;;;0.60;0.60;;;17.00;87.50;;;;;;5056410;28;20478;-79
2022/10/22 09:33:46;;;;;;;0.60;0.60;;;17.10;86.70;;;;;;5055694;28;20450;-76
2022/10/22 09:36:16;;;;;;;0.60;0.60;;;17.00;87.50;;;;;;5056231;28;20962;-79
2022/10/22 09:38:46;;;;;;;0.60;0.50;;;17.10;87.30;;;;;;5055696;28;20483;-83
2022/10/22 09:41:14;;;;;;;0.53;0.50;;;17.00;86.00;;;;;;5056303;28;20521;-78
2022/10/22 09:43:41;;;;;;;0.60;0.50;;;17.00;87.00;;;;;;5058111;28;20450;-81
2022/10/22 09:46:15;;;;;;;0.60;0.50;;;17.20;88.20;;;;;;5058104;28;20442;-81
2022/10/22 09:48:47;;;;;;;1.47;0.60;;;17.40;87.90;;;;;;5058417;28;20427;-80
2022/10/22 09:51:18;;;;;;;0.70;0.60;;;17.60;87.80;;;;;;5058660;28;20470;-80
2022/10/22 09:53:47;;;;;;;0.60;0.53;;;17.70;84.00;;;;;;5057742;28;20867;-80
2022/10/22 09:56:20;;;;;;;0.60;0.50;;;17.70;84.10;;;;;;5060385;28;20449;-80
2022/10/22 09:58:50;;;;;;;0.60;0.50;;;17.70;85.60;;;;;;5064129;28;20494;-80
2022/10/22 10:01:19;;;;;;;0.60;0.60;;;17.70;84.60;;;;;;5064482;28;20488;-81
2022/10/22 10:03:48;;;;;;;0.60;0.50;;;17.80;85.20;;;;;;5063364;28;20455;-80
2022/10/22 10:06:19;;;;;;;0.60;0.50;;;18.00;84.30;;;;;;5059820;28;20448;-80
2022/10/22 10:08:46;;;;;;;0.60;0.50;;;18.10;83.60;;;;;;5056896;28;20455;-79
2022/10/22 10:11:22;;;;;;;0.60;0.53;;;18.20;83.70;;;;;;5060511;28;20542;-80
2022/10/22 10:13:54;;;;;;;0.70;0.70;;;18.20;82.30;;;;;;5059469;28;20491;-80
2022/10/22 10:16:44;;;;;;;0.60;0.60;;;18.30;84.00;;;;;;5061470;28;20889;-81
2022/10/22 10:19:29;;;;;;;0.60;0.50;;;18.30;83.50;;;;;;5059862;28;20466;-79
2022/10/22 10:22:05;;;;;;;1.17;0.70;;;18.40;82.30;;;;;;5061084;28;20466;-82
2022/10/22 10:24:45;;;;;;;0.60;0.50;;;18.50;83.50;;;;;;5059021;28;20445;-81
2022/10/22 10:27:20;;;;;;;0.60;0.60;;;18.60;82.10;;;;;;5055607;28;20438;-79
2022/10/22 10:29:53;;;;;;;0.60;0.50;;;18.70;80.10;;;;;;5054554;28;20917;-78
2022/10/22 10:32:32;;;;;;;0.57;0.50;;;18.70;79.00;;;;;;5056210;28;20461;-79
2022/10/22 10:35:12;;;;;;;0.60;0.60;;;18.80;81.10;;;;;;5055945;28;20434;-79
2022/10/22 10:37:46;;;;;;;0.70;0.70;;;18.80;79.10;;;;;;5055766;28;20431;-79
2022/10/22 10:40:23;;;;;;;0.60;0.60;;;18.80;77.00;;;;;;5054583;28;20909;-80
2022/10/22 10:42:54;;;;;;;0.60;0.57;;;18.80;77.10;;;;;;5055485;28;20442;-78
2022/10/22 10:45:29;;;;;;;0.60;0.60;;;18.80;77.20;;;;;;5054901;28;20435;-78
2022/10/22 10:48:17;;;;;;;1.17;0.70;;;18.80;78.40;;;;;;5054283;28;20433;-79
2022/10/22 10:50:56;;;;;;;0.60;0.60;;;18.90;78.80;;;;;;5053205;28;20435;-79
2022/10/22 10:53:35;;;;;;;0.60;0.50;;;19.00;77.60;;;;;;5053209;28;20427;-79
2022/10/22 10:56:16;;;;;;;0.80;0.80;;;19.00;76.40;;;;;;5058184;28;20809;-78
2022/10/22 10:58:53;;;;;;;0.70;0.63;;;19.10;74.90;;;;;;5054208;28;20462;-78
2022/10/22 11:01:27;;;;;;;0.73;0.60;;;19.00;74.90;;;;;;5056794;28;20482;-77
2022/10/22 11:04:20;;;;;;;0.60;0.50;;;19.10;75.50;;;;;;5061437;28;20435;-79
2022/10/22 11:06:50;;;;;;;0.60;0.60;;;19.30;75.60;;;;;;5061674;28;20446;-79
2022/10/22 11:09:24;;;;;;;0.70;0.60;;;19.30;74.90;;;;;;5060721;28;20449;-78
2022/10/22 11:11:55;;;;;;;0.60;0.60;;;19.40;74.00;;;;;;5061211;28;20470;-78
2022/10/22 11:14:27;;;;;;;0.80;0.60;;;19.50;72.90;;;;;;5061217;28;20419;-78
2022/10/22 11:17:00;;;;;;;0.60;0.50;;;19.80;74.10;;;;;;5060372;28;20441;-77
2022/10/22 11:19:31;;;;;;;0.60;0.53;;;19.90;71.70;;;;;;5059673;28;20486;-78
2022/10/22 11:22:05;;;;;;;0.80;0.60;;;19.80;72.50;;;;;;5056573;28;20973;-76
2022/10/22 11:24:39;;;;;;;0.70;0.60;;;19.80;72.10;;;;;;5056559;28;20431;-78
2022/10/22 11:27:11;;;;;;;0.60;0.50;;;19.90;71.80;;;;;;5056232;28;20808;-79
2022/10/22 11:29:42;;;;;;;0.70;0.60;;;20.10;71.10;;;;;;5056644;28;20419;-78
2022/10/22 11:32:14;;;;;;;0.60;0.60;;;20.30;70.10;;;;;;5056423;28;20474;-78
2022/10/22 11:34:46;;;;;;;0.70;0.63;;;20.30;69.50;;;;;;5056025;28;20443;-78
2022/10/22 11:37:16;;;;;;;0.60;0.60;;;20.50;70.30;;;;;;5056411;28;20435;-78
2022/10/22 11:39:45;;;;;;;0.60;0.60;;;20.80;70.30;;;;;;5056177;28;20489;-77
2022/10/22 11:42:18;;;;;;;0.70;0.60;;;21.00;69.50;;;;;;5056231;28;20466;-78
2022/10/22 11:45:00;;;;;;;0.60;0.60;;;21.10;66.30;;;;;;5056355;28;20443;-79
2022/10/22 11:47:29;;;;;;;0.60;0.50;;;21.20;66.70;;;;;;5056344;28;20431;-75
2022/10/22 11:49:59;;;;;;;0.70;0.60;;;21.30;68.60;;;;;;5056450;28;20540;-79
2022/10/22 11:52:40;;;;;;;0.60;0.60;;;21.20;65.90;;;;;;5056626;28;20470;-79
2022/10/22 11:55:32;;;;;;;0.87;0.87;;;21.20;66.70;;;;;;5056640;28;20442;-78
2022/10/22 11:58:00;;;;;;;0.70;0.60;;;21.40;68.70;;;;;;5056428;28;20805;-79
2022/10/22 12:00:35;;;;;;;0.60;0.50;;;21.70;67.20;;;;;;5056200;28;20458;-78
2022/10/22 12:03:14;;;;;;;0.90;0.60;;;21.80;64.20;;;;;;5055893;28;20458;-77
2022/10/22 12:05:41;;;;;;;0.60;0.60;;;21.90;64.60;;;;;;5057503;28;20427;-79
2022/10/22 12:08:27;;;;;;;0.60;0.60;;;22.30;62.80;;;;;;5057477;28;20820;-79
2022/10/22 12:11:11;;;;;;;0.60;0.60;;;22.50;62.10;;;;;;5055614;28;20466;-79
2022/10/22 12:14:10;;;;;;;0.60;0.50;;;22.70;61.80;;;;;;5054832;28;20809;-78
2022/10/22 12:16:39;;;;;;;0.60;0.57;;;22.70;60.50;;;;;;5055552;28;20431;-79
2022/10/22 12:19:14;;;;;;;0.60;0.60;;;22.80;60.30;;;;;;5055266;28;20482;-78
2022/10/22 12:21:43;;;;;;;0.60;0.50;;;22.80;60.90;;;;;;5056318;28;20461;-78
2022/10/22 12:24:15;;;;;;;0.60;0.60;;;22.70;60.80;;;;;;5056232;28;20458;-79
2022/10/22 12:26:42;;;;;;;0.60;0.60;;;22.50;62.20;;;;;;5055992;28;20496;-78
2022/10/22 12:29:12;;;;;;;0.60;0.50;;;22.50;62.10;;;;;;5055612;28;20453;-78
2022/10/22 12:31:40;;;;;;;1.17;0.60;;;22.30;62.70;;;;;;5055146;28;20470;-78
2022/10/22 12:34:07;;;;;;;0.80;0.67;;;22.20;62.00;;;;;;5055069;28;20926;-79
2022/10/22 12:36:36;;;;;;;0.67;0.67;;;22.10;63.10;;;;;;5055206;28;20447;-78
2022/10/22 12:39:09;;;;;;;0.70;0.60;;;22.00;62.60;;;;;;5055234;28;20479;-78
2022/10/22 12:41:40;;;;;;;1.27;0.70;;;21.90;63.40;;;;;;5055034;28;20475;-78
2022/10/22 12:44:07;;;;;;;0.60;0.60;;;21.80;63.00;;;;;;5055177;28;20447;-77
2022/10/22 12:46:35;;;;;;;0.70;0.60;;;22.00;64.40;;;;;;5055091;28;20834;-78
2022/10/22 12:49:06;;;;;;;0.60;0.60;;;22.10;62.10;;;;;;5055084;28;20454;-78
2022/10/22 12:51:32;;;;;;;0.63;0.63;;;22.30;62.10;;;;;;5054998;28;20470;-78
2022/10/22 12:54:04;;;;;;;0.70;0.60;;;22.50;62.60;;;;;;5055069;28;20446;-78
2022/10/22 12:56:33;;;;;;;0.60;0.60;;;22.70;61.70;;;;;;5054914;28;20437;-78
2022/10/22 12:59:04;;;;;;;0.60;0.60;;;22.80;61.50;;;;;;5054729;28;20478;-78
2022/10/22 13:01:36;;;;;;;0.60;0.60;;;22.80;60.90;;;;;;5054365;28;20481;-78
2022/10/22 13:04:18;;;;;;;0.60;0.60;;;22.70;61.20;;;;;;5054753;28;20438;-77
2022/10/22 13:06:47;;;;;;;0.70;0.70;;;22.60;62.50;;;;;;5054680;28;20458;-78
2022/10/22 13:09:17;;;;;;;0.57;0.50;;;22.60;62.80;;;;;;5054638;28;20449;-77
2022/10/22 13:11:51;;;;;;;0.73;0.60;;;22.60;61.20;;;;;;5054416;28;20512;-77
2022/10/22 13:14:30;;;;;;;0.70;0.70;;;22.80;63.00;;;;;;5054099;28;20804;-77
2022/10/22 13:17:14;;;;;;;0.70;0.70;;;23.20;62.20;;;;;;5054413;28;20435;-78
2022/10/22 13:19:47;;;;;;;0.60;0.60;;;25.20;59.10;;;;;;5054291;28;20558;-77
2022/10/22 13:22:33;;;;;;;0.60;0.50;;;27.30;52.90;;;;;;5054231;28;20467;-77
2022/10/22 13:25:18;;;;;;;0.60;0.57;;;27.20;49.90;;;;;;5053482;28;20458;-78
2022/10/22 13:27:45;;;;;;;0.60;0.60;;;26.30;51.60;;;;;;5054370;28;20426;-78
2022/10/22 13:30:19;;;;;;;0.60;0.60;;;26.20;52.50;;;;;;5054187;28;20447;-77
2022/10/22 13:32:51;;;;;;;0.57;0.50;;;26.90;53.30;;;;;;5054123;28;20474;-78
2022/10/22 13:35:21;;;;;;;1.23;0.70;;;29.20;48.50;;;;;;5054098;28;20438;-78
2022/10/22 13:37:48;;;;;;;0.60;0.60;;;32.20;44.10;;;;;;5054015;28;20919;-79
2022/10/22 13:40:15;;;;;;;0.60;0.50;;;34.90;40.70;;;;;;5053833;28;20493;-78
2022/10/22 13:42:42;;;;;;;0.70;0.70;;;37.30;37.70;;;;;;5054760;28;20474;-78
2022/10/22 13:45:09;;;;;;;0.80;0.57;;;39.10;34.10;;;;;;5054430;28;20458;-78
2022/10/22 13:47:37;;;;;;;0.60;0.60;;;40.50;32.80;;;;;;5053953;28;20821;-78
2022/10/22 13:50:10;;;;;;;0.50;0.50;;;41.70;31.70;;;;;;5054415;28;20443;-77
2022/10/22 13:52:41;;;;;;;0.50;0.50;;;42.70;30.10;;;;;;5054607;28;20465;-78
2022/10/22 13:55:17;;;;;;;0.60;0.50;;;43.00;29.30;;;;;;5054135;28;20814;-78
2022/10/22 13:57:45;;;;;;;0.60;0.60;;;41.80;30.00;;;;;;5053987;28;20422;-79
2022/10/22 14:00:17;;;;;;;1.90;0.90;;;40.80;30.60;;;;;;5054109;28;20497;-78
2022/10/22 14:02:47;;;;;;;0.60;0.57;;;39.30;32.80;;;;;;5053374;28;20474;-77
2022/10/22 14:05:16;;;;;;;0.60;0.60;;;39.00;32.70;;;;;;5053754;28;20426;-77
2022/10/22 14:07:43;;;;;;;0.60;0.60;;;39.20;32.80;;;;;;5053846;28;20457;-78
2022/10/22 14:10:15;;;;;;;0.60;0.60;;;38.60;33.20;;;;;;5053540;28;20446;-77
2022/10/22 14:12:42;;;;;;;0.60;0.60;;;38.30;32.90;;;;;;5053553;28;20489;-78
2022/10/22 14:15:11;;;;;;;0.60;0.60;;;37.70;33.00;;;;;;5054546;28;20520;-79
2022/10/22 14:17:38;;;;;;;0.57;0.57;;;37.80;34.20;;;;;;5053646;28;20461;-78
2022/10/22 14:20:07;;;;;;;0.57;0.50;;;37.70;33.20;;;;;;5053178;28;20474;-77
2022/10/22 14:22:34;;;;;;;0.60;0.50;;;37.20;34.10;;;;;;5053031;28;20996;-78
2022/10/22 14:25:00;;;;;;;0.60;0.60;;;36.90;34.00;;;;;;5053402;28;20473;-78
2022/10/22 14:27:27;;;;;;;0.70;0.60;;;35.50;35.90;;;;;;5053209;28;20457;-78
2022/10/22 14:29:54;;;;;;;0.60;0.60;;;35.00;36.00;;;;;;5053498;28;20470;-78
2022/10/22 14:32:21;;;;;;;0.60;0.60;;;35.30;36.00;;;;;;5052858;28;21051;-77
2022/10/22 14:34:48;;;;;;;0.70;0.60;;;34.30;36.10;;;;;;5053382;28;20501;-77
2022/10/22 14:37:22;;;;;;;1.07;0.50;;;33.80;37.30;;;;;;5056446;28;20545;-78
2022/10/22 14:39:58;;;;;;;0.70;0.60;;;33.10;38.10;;;;;;5057448;28;20992;-77
2022/10/22 14:42:25;;;;;;;0.70;0.60;;;31.50;40.10;;;;;;5057433;28;20528;-77
2022/10/22 14:44:52;;;;;;;0.70;0.60;;;30.20;42.30;;;;;;5057344;28;20454;-77
2022/10/22 14:47:20;;;;;;;0.60;0.60;;;29.20;43.50;;;;;;5057908;28;20841;-77
2022/10/22 14:49:46;;;;;;;0.60;0.60;;;28.00;45.40;;;;;;5057376;28;20936;-76
2022/10/22 14:52:13;;;;;;;0.70;0.60;;;26.80;48.00;;;;;;5057005;28;20473;-77
2022/10/22 14:54:42;;;;;;;0.60;0.60;;;25.80;49.50;;;;;;5057099;28;20446;-77
2022/10/22 14:57:10;;;;;;;0.60;0.60;;;25.10;51.20;;;;;;5056750;28;20926;-77
2022/10/22 14:59:37;;;;;;;0.90;0.70;;;24.90;52.60;;;;;;5056888;28;20482;-76
2022/10/22 15:02:03;;;;;;;0.63;0.60;;;24.40;53.10;;;;;;5056445;28;20481;-76
2022/10/22 15:04:30;;;;;;;0.80;0.70;;;24.00;53.50;;;;;;5056805;28;20451;-77
2022/10/22 15:06:58;;;;;;;1.00;0.70;;;23.60;55.10;;;;;;5056796;28;20447;-77
2022/10/22 15:09:24;;;;;;;0.60;0.60;;;23.30;56.40;;;;;;5056729;28;20450;-77
2022/10/22 15:11:52;;;;;;;0.60;0.60;;;22.70;57.40;;;;;;5056339;28;20905;-77
2022/10/22 15:14:19;;;;;;;0.80;0.60;;;22.30;58.10;;;;;;5058136;28;20446;-77
2022/10/22 15:16:46;;;;;;;0.70;0.70;;;21.90;59.00;;;;;;5056334;28;20937;-76
2022/10/22 15:19:13;;;;;;;0.60;0.60;;;21.60;59.80;;;;;;5056472;28;20485;-77
2022/10/22 15:21:39;;;;;;;0.70;0.67;;;21.50;60.20;;;;;;5056400;28;20493;-77
2022/10/22 15:24:06;;;;;;;0.70;0.57;;;21.40;60.50;;;;;;5056476;28;20451;-77
2022/10/22 15:26:33;;;;;;;0.90;0.60;;;21.40;60.90;;;;;;5056475;28;20442;-76
2022/10/22 15:29:02;;;;;;;0.60;0.60;;;21.30;61.00;;;;;;5056348;28;20453;-76
2022/10/22 15:31:49;;;;;;;1.00;0.70;;;21.20;61.60;;;;;;5056267;28;20463;-76
2022/10/22 15:34:21;;;;;;;0.70;0.70;;;21.20;62.70;;;;;;5056259;28;20446;-76
2022/10/22 15:36:48;;;;;;;0.90;0.90;;;21.30;63.10;;;;;;5056187;28;20545;-76
2022/10/22 15:39:15;;;;;;;2.70;0.63;;;21.30;64.50;;;;;;5056118;28;20482;-76
2022/10/22 15:41:41;;;;;;;1.00;0.77;;;21.20;64.40;;;;;;5056108;28;20886;-76
2022/10/22 15:44:15;;;;;;;1.10;0.80;;;21.10;65.90;;;;;;5056091;28;20450;-76
2022/10/22 15:46:42;;;;;;;0.83;0.80;;;21.00;66.40;;;;;;5055965;28;20485;-76
2022/10/22 15:49:09;;;;;;;0.73;0.73;;;20.90;67.10;;;;;;5055067;28;20458;-76
2022/10/22 15:51:35;;;;;;;1.40;1.30;;;20.70;66.80;;;;;;5055643;28;20463;-76
2022/10/22 15:54:02;;;;;;;1.20;1.10;;;20.60;67.70;;;;;;5055660;28;20446;-76
2022/10/22 15:56:30;;;;;;;1.00;1.00;;;20.60;68.50;;;;;;5055870;28;20461;-77
2022/10/22 15:58:58;;;;;;;1.30;1.20;;;20.40;68.50;;;;;;5055762;28;20450;-76
2022/10/22 16:01:27;;;;;;;1.00;1.00;;;20.40;68.90;;;;;;5055377;28;20486;-77
2022/10/22 16:03:58;;;;;;;1.07;1.03;;;20.30;69.10;;;;;;5055504;28;20960;-77